Hartford Brainard Airport Hartford US
ICAO: KHFD
IATA: HFD
Category: Medium
Scheduled Services: No

Elevation: 18 ft
TransAlt. 18000 ft.

Airport Communications:
BRADLEY APP/DEP:127.8
ATIS:126.45
BRADLEY CLNC DEL:121.6
CTAF:119.6
GND:121.6
BRAINARD TWR:119.6
UNICOM:122.95

KHFD Zoom In..

If you have problems with the map follow the link
https://www.worldairports.se/pages/airport.php?
ICAO=KHFD

Runways:

(A) RW 02 length 4417 ft width 150 ft
---- / hdg 24

(B) RW 11 length 2314 ft width 71 ft
---- / hdg 114

(C) RW 20 length 4417 ft width 150 ft
---- / hdg 204

(D) RW 29 length 2314 ft width 71 ft
---- / hdg 294

Location; KHFD
Day. 06 / Time. 02.53 Zulu
* Altimeter: 29.98
* Temperature: 02° c. 35.6°f.
* Wind from: 300° Speed 08 kn.
Dewpoint: -07° c.
Visibility: 10 Statute Miles.
Clouds: Overcast 4500 ft.

KHFD 060253Z 30008KT 10SM OVC045 02/M07 A2998 RMK AO2 SLP151 T00171067 53026


Wind From 300°
Speed 08 kn.

 
 
jpsmedia worldairports.se 2019   terms of use